sensor_id;sensor_type;location;lat;lon;timestamp;P1;durP1;ratioP1;P2;durP2;ratioP2
75021;SDS011;63583;49.976;20.182;2023-01-06T00:01:07;2.47;;;1.02;;
75021;SDS011;63583;49.976;20.182;2023-01-06T00:03:35;1.50;;;1.35;;
75021;SDS011;63583;49.976;20.182;2023-01-06T00:06:03;2.08;;;0.80;;
75021;SDS011;63583;49.976;20.182;2023-01-06T00:08:30;1.02;;;0.80;;
75021;SDS011;63583;49.976;20.182;2023-01-06T00:10:56;1.88;;;1.40;;
75021;SDS011;63583;49.976;20.182;2023-01-06T00:13:23;1.27;;;0.70;;
75021;SDS011;63583;49.976;20.182;2023-01-06T00:15:49;1.40;;;0.88;;
75021;SDS011;63583;49.976;20.182;2023-01-06T00:18:14;2.42;;;1.13;;
75021;SDS011;63583;49.976;20.182;2023-01-06T00:20:40;1.63;;;1.25;;
75021;SDS011;63583;49.976;20.182;2023-01-06T00:23:06;1.80;;;1.35;;
75021;SDS011;63583;49.976;20.182;2023-01-06T00:25:32;1.35;;;0.60;;
75021;SDS011;63583;49.976;20.182;2023-01-06T00:27:58;2.75;;;1.20;;
75021;SDS011;63583;49.976;20.182;2023-01-06T00:30:24;1.52;;;1.00;;
75021;SDS011;63583;49.976;20.182;2023-01-06T00:32:50;5.43;;;1.42;;
75021;SDS011;63583;49.976;20.182;2023-01-06T00:35:16;1.63;;;1.20;;
75021;SDS011;63583;49.976;20.182;2023-01-06T00:37:41;2.53;;;0.95;;
75021;SDS011;63583;49.976;20.182;2023-01-06T00:40:08;2.83;;;1.02;;
75021;SDS011;63583;49.976;20.182;2023-01-06T00:42:34;0.70;;;0.70;;
75021;SDS011;63583;49.976;20.182;2023-01-06T00:45:00;3.45;;;1.40;;
75021;SDS011;63583;49.976;20.182;2023-01-06T00:47:26;1.27;;;0.73;;
75021;SDS011;63583;49.976;20.182;2023-01-06T00:49:52;1.55;;;0.95;;
75021;SDS011;63583;49.976;20.182;2023-01-06T00:52:17;1.50;;;1.05;;
75021;SDS011;63583;49.976;20.182;2023-01-06T00:54:44;2.20;;;1.17;;
75021;SDS011;63583;49.976;20.182;2023-01-06T00:57:09;1.73;;;1.00;;
75021;SDS011;63583;49.976;20.182;2023-01-06T00:59:35;1.30;;;0.70;;
75021;SDS011;63583;49.976;20.182;2023-01-06T01:02:01;1.15;;;0.70;;
75021;SDS011;63583;49.976;20.182;2023-01-06T01:04:28;1.80;;;0.60;;
75021;SDS011;63583;49.976;20.182;2023-01-06T01:06:54;1.85;;;0.63;;
75021;SDS011;63583;49.976;20.182;2023-01-06T01:09:24;1.95;;;0.80;;
75021;SDS011;63583;49.976;20.182;2023-01-06T01:11:52;1.10;;;0.40;;
75021;SDS011;63583;49.976;20.182;2023-01-06T01:14:41;1.15;;;1.02;;
75021;SDS011;63583;49.976;20.182;2023-01-06T01:17:14;1.40;;;0.70;;
75021;SDS011;63583;49.976;20.182;2023-01-06T01:19:42;0.98;;;0.60;;
75021;SDS011;63583;49.976;20.182;2023-01-06T01:22:08;1.67;;;0.70;;
75021;SDS011;63583;49.976;20.182;2023-01-06T01:24:34;2.20;;;1.00;;
75021;SDS011;63583;49.976;20.182;2023-01-06T01:27:00;1.20;;;0.57;;
75021;SDS011;63583;49.976;20.182;2023-01-06T01:29:26;0.65;;;0.50;;
75021;SDS011;63583;49.976;20.182;2023-01-06T01:31:52;0.65;;;0.47;;
75021;SDS011;63583;49.976;20.182;2023-01-06T01:34:18;0.68;;;0.40;;
75021;SDS011;63583;49.976;20.182;2023-01-06T01:36:45;1.15;;;0.77;;
75021;SDS011;63583;49.976;20.182;2023-01-06T01:39:13;0.55;;;0.30;;
75021;SDS011;63583;49.976;20.182;2023-01-06T01:41:40;1.85;;;0.80;;
75021;SDS011;63583;49.976;20.182;2023-01-06T01:47:11;1.25;;;0.70;;
75021;SDS011;63583;49.976;20.182;2023-01-06T01:49:40;0.95;;;0.65;;
75021;SDS011;63583;49.976;20.182;2023-01-06T01:52:08;1.65;;;0.57;;
75021;SDS011;63583;49.976;20.182;2023-01-06T01:54:36;0.45;;;0.40;;
75021;SDS011;63583;49.976;20.182;2023-01-06T01:57:06;4.10;;;0.75;;
75021;SDS011;63583;49.976;20.182;2023-01-06T01:59:36;0.77;;;0.70;;
75021;SDS011;63583;49.976;20.182;2023-01-06T02:02:03;0.55;;;0.50;;
75021;SDS011;63583;49.976;20.182;2023-01-06T02:04:29;0.75;;;0.50;;
75021;SDS011;63583;49.976;20.182;2023-01-06T02:06:59;0.88;;;0.77;;
75021;SDS011;63583;49.976;20.182;2023-01-06T02:09:30;0.73;;;0.55;;
75021;SDS011;63583;49.976;20.182;2023-01-06T02:12:00;1.13;;;0.45;;
75021;SDS011;63583;49.976;20.182;2023-01-06T02:14:26;1.38;;;0.73;;
75021;SDS011;63583;49.976;20.182;2023-01-06T02:26:21;1.23;;;0.50;;
75021;SDS011;63583;49.976;20.182;2023-01-06T02:48:44;0.98;;;0.60;;
75021;SDS011;63583;49.976;20.182;2023-01-06T02:51:34;1.58;;;0.65;;
75021;SDS011;63583;49.976;20.182;2023-01-06T02:54:16;1.27;;;0.82;;
75021;SDS011;63583;49.976;20.182;2023-01-06T02:57:00;1.38;;;0.80;;
75021;SDS011;63583;49.976;20.182;2023-01-06T02:59:35;0.95;;;0.60;;
75021;SDS011;63583;49.976;20.182;2023-01-06T03:02:26;1.17;;;0.75;;
75021;SDS011;63583;49.976;20.182;2023-01-06T03:04:55;1.55;;;0.85;;
75021;SDS011;63583;49.976;20.182;2023-01-06T03:09:52;0.98;;;0.60;;
75021;SDS011;63583;49.976;20.182;2023-01-06T03:12:23;2.45;;;0.73;;
75021;SDS011;63583;49.976;20.182;2023-01-06T03:15:04;1.40;;;0.70;;
75021;SDS011;63583;49.976;20.182;2023-01-06T03:17:30;1.02;;;0.68;;
75021;SDS011;63583;49.976;20.182;2023-01-06T03:19:56;2.25;;;1.02;;
75021;SDS011;63583;49.976;20.182;2023-01-06T03:22:22;0.98;;;0.70;;
75021;SDS011;63583;49.976;20.182;2023-01-06T03:24:48;1.00;;;0.63;;
75021;SDS011;63583;49.976;20.182;2023-01-06T03:27:15;1.23;;;0.80;;
75021;SDS011;63583;49.976;20.182;2023-01-06T03:29:44;0.55;;;0.45;;
75021;SDS011;63583;49.976;20.182;2023-01-06T03:40:52;1.38;;;0.73;;
75021;SDS011;63583;49.976;20.182;2023-01-06T03:43:29;1.38;;;0.85;;
75021;SDS011;63583;49.976;20.182;2023-01-06T03:51:45;1.08;;;0.80;;
75021;SDS011;63583;49.976;20.182;2023-01-06T03:57:33;1.70;;;0.80;;
75021;SDS011;63583;49.976;20.182;2023-01-06T04:00:04;1.40;;;0.88;;
75021;SDS011;63583;49.976;20.182;2023-01-06T04:02:35;1.13;;;1.00;;
75021;SDS011;63583;49.976;20.182;2023-01-06T04:05:10;0.52;;;0.43;;
75021;SDS011;63583;49.976;20.182;2023-01-06T04:07:54;6.45;;;1.10;;
75021;SDS011;63583;49.976;20.182;2023-01-06T04:10:20;1.20;;;0.80;;
75021;SDS011;63583;49.976;20.182;2023-01-06T04:12:47;0.85;;;0.55;;
75021;SDS011;63583;49.976;20.182;2023-01-06T04:15:14;1.15;;;0.90;;
75021;SDS011;63583;49.976;20.182;2023-01-06T04:17:47;2.80;;;1.13;;
75021;SDS011;63583;49.976;20.182;2023-01-06T04:20:31;1.33;;;1.00;;
75021;SDS011;63583;49.976;20.182;2023-01-06T04:22:57;1.80;;;1.00;;
75021;SDS011;63583;49.976;20.182;2023-01-06T04:25:23;2.50;;;1.38;;
75021;SDS011;63583;49.976;20.182;2023-01-06T04:27:50;2.42;;;1.20;;
75021;SDS011;63583;49.976;20.182;2023-01-06T04:30:16;2.03;;;1.25;;
75021;SDS011;63583;49.976;20.182;2023-01-06T04:32:42;1.55;;;1.10;;
75021;SDS011;63583;49.976;20.182;2023-01-06T04:35:08;2.28;;;0.85;;
75021;SDS011;63583;49.976;20.182;2023-01-06T04:37:34;3.55;;;0.90;;
75021;SDS011;63583;49.976;20.182;2023-01-06T04:40:00;1.77;;;1.27;;
75021;SDS011;63583;49.976;20.182;2023-01-06T04:42:26;2.53;;;1.00;;
75021;SDS011;63583;49.976;20.182;2023-01-06T04:44:52;2.30;;;0.82;;
75021;SDS011;63583;49.976;20.182;2023-01-06T04:47:18;6.30;;;0.75;;
75021;SDS011;63583;49.976;20.182;2023-01-06T04:49:44;2.28;;;0.90;;
75021;SDS011;63583;49.976;20.182;2023-01-06T04:52:10;1.05;;;0.80;;
75021;SDS011;63583;49.976;20.182;2023-01-06T04:54:35;0.95;;;0.80;;
75021;SDS011;63583;49.976;20.182;2023-01-06T04:57:02;1.33;;;0.80;;
75021;SDS011;63583;49.976;20.182;2023-01-06T04:59:27;1.38;;;0.95;;
75021;SDS011;63583;49.976;20.182;2023-01-06T05:01:53;2.10;;;1.27;;
75021;SDS011;63583;49.976;20.182;2023-01-06T05:04:19;1.58;;;0.93;;
75021;SDS011;63583;49.976;20.182;2023-01-06T05:06:45;1.50;;;0.80;;
75021;SDS011;63583;49.976;20.182;2023-01-06T05:09:11;1.58;;;1.20;;
75021;SDS011;63583;49.976;20.182;2023-01-06T05:11:37;1.27;;;1.00;;
75021;SDS011;63583;49.976;20.182;2023-01-06T05:14:03;2.58;;;1.30;;
75021;SDS011;63583;49.976;20.182;2023-01-06T05:16:30;2.65;;;1.33;;
75021;SDS011;63583;49.976;20.182;2023-01-06T05:18:57;2.58;;;0.95;;
75021;SDS011;63583;49.976;20.182;2023-01-06T05:21:24;2.25;;;1.02;;
75021;SDS011;63583;49.976;20.182;2023-01-06T05:23:52;2.28;;;1.05;;
75021;SDS011;63583;49.976;20.182;2023-01-06T05:26:23;1.10;;;0.88;;
75021;SDS011;63583;49.976;20.182;2023-01-06T05:28:50;2.20;;;1.30;;
75021;SDS011;63583;49.976;20.182;2023-01-06T05:31:16;2.47;;;1.25;;
75021;SDS011;63583;49.976;20.182;2023-01-06T05:33:42;2.22;;;1.13;;
75021;SDS011;63583;49.976;20.182;2023-01-06T05:36:09;2.45;;;1.60;;
75021;SDS011;63583;49.976;20.182;2023-01-06T05:38:37;2.80;;;1.05;;
75021;SDS011;63583;49.976;20.182;2023-01-06T05:41:03;1.13;;;0.68;;
75021;SDS011;63583;49.976;20.182;2023-01-06T05:43:31;2.03;;;1.15;;
75021;SDS011;63583;49.976;20.182;2023-01-06T05:45:58;3.80;;;2.00;;
75021;SDS011;63583;49.976;20.182;2023-01-06T05:48:25;2.88;;;1.38;;
75021;SDS011;63583;49.976;20.182;2023-01-06T05:50:52;1.92;;;1.35;;
75021;SDS011;63583;49.976;20.182;2023-01-06T05:53:24;2.20;;;1.10;;
75021;SDS011;63583;49.976;20.182;2023-01-06T05:55:50;4.75;;;1.80;;
75021;SDS011;63583;49.976;20.182;2023-01-06T05:58:18;2.78;;;1.20;;
75021;SDS011;63583;49.976;20.182;2023-01-06T06:00:44;2.35;;;1.70;;
75021;SDS011;63583;49.976;20.182;2023-01-06T06:03:10;3.53;;;2.05;;
75021;SDS011;63583;49.976;20.182;2023-01-06T06:05:36;2.40;;;1.15;;
75021;SDS011;63583;49.976;20.182;2023-01-06T06:08:02;2.70;;;1.25;;
75021;SDS011;63583;49.976;20.182;2023-01-06T06:10:28;2.47;;;1.45;;
75021;SDS011;63583;49.976;20.182;2023-01-06T06:12:54;1.67;;;1.30;;
75021;SDS011;63583;49.976;20.182;2023-01-06T06:15:20;2.38;;;1.17;;
75021;SDS011;63583;49.976;20.182;2023-01-06T06:17:45;3.78;;;1.20;;
75021;SDS011;63583;49.976;20.182;2023-01-06T06:20:11;4.13;;;1.58;;
75021;SDS011;63583;49.976;20.182;2023-01-06T06:22:37;2.67;;;1.63;;
75021;SDS011;63583;49.976;20.182;2023-01-06T06:25:03;1.85;;;1.25;;
75021;SDS011;63583;49.976;20.182;2023-01-06T06:27:29;3.92;;;2.08;;
75021;SDS011;63583;49.976;20.182;2023-01-06T06:29:55;3.28;;;1.30;;
75021;SDS011;63583;49.976;20.182;2023-01-06T06:32:21;5.10;;;2.17;;
75021;SDS011;63583;49.976;20.182;2023-01-06T06:34:47;4.25;;;2.28;;
75021;SDS011;63583;49.976;20.182;2023-01-06T06:37:13;3.33;;;1.67;;
75021;SDS011;63583;49.976;20.182;2023-01-06T06:39:39;3.92;;;1.67;;
75021;SDS011;63583;49.976;20.182;2023-01-06T06:42:04;3.20;;;1.92;;
75021;SDS011;63583;49.976;20.182;2023-01-06T06:44:30;2.60;;;1.63;;
75021;SDS011;63583;49.976;20.182;2023-01-06T06:46:57;5.57;;;2.58;;
75021;SDS011;63583;49.976;20.182;2023-01-06T06:49:23;4.22;;;1.80;;
75021;SDS011;63583;49.976;20.182;2023-01-06T06:51:48;2.85;;;1.38;;
75021;SDS011;63583;49.976;20.182;2023-01-06T06:54:14;3.60;;;2.33;;
75021;SDS011;63583;49.976;20.182;2023-01-06T06:56:40;2.78;;;2.28;;
75021;SDS011;63583;49.976;20.182;2023-01-06T06:59:06;2.53;;;1.20;;
75021;SDS011;63583;49.976;20.182;2023-01-06T07:01:32;2.95;;;1.70;;
75021;SDS011;63583;49.976;20.182;2023-01-06T07:03:58;3.05;;;1.90;;
75021;SDS011;63583;49.976;20.182;2023-01-06T07:06:24;4.15;;;1.15;;
75021;SDS011;63583;49.976;20.182;2023-01-06T07:08:55;2.00;;;1.48;;
75021;SDS011;63583;49.976;20.182;2023-01-06T07:11:21;4.22;;;1.83;;
75021;SDS011;63583;49.976;20.182;2023-01-06T07:13:48;4.60;;;1.77;;
75021;SDS011;63583;49.976;20.182;2023-01-06T07:16:14;5.40;;;1.95;;
75021;SDS011;63583;49.976;20.182;2023-01-06T07:18:40;4.32;;;1.83;;
75021;SDS011;63583;49.976;20.182;2023-01-06T07:21:06;3.67;;;2.22;;
75021;SDS011;63583;49.976;20.182;2023-01-06T07:23:32;7.18;;;2.15;;
75021;SDS011;63583;49.976;20.182;2023-01-06T07:25:59;2.63;;;1.90;;
75021;SDS011;63583;49.976;20.182;2023-01-06T07:28:26;3.92;;;1.92;;
75021;SDS011;63583;49.976;20.182;2023-01-06T07:30:53;4.05;;;1.77;;
75021;SDS011;63583;49.976;20.182;2023-01-06T07:33:19;5.20;;;1.75;;
75021;SDS011;63583;49.976;20.182;2023-01-06T07:35:45;4.68;;;1.98;;
75021;SDS011;63583;49.976;20.182;2023-01-06T07:38:11;4.03;;;2.08;;
75021;SDS011;63583;49.976;20.182;2023-01-06T07:40:37;2.72;;;1.40;;
75021;SDS011;63583;49.976;20.182;2023-01-06T07:43:04;3.15;;;1.75;;
75021;SDS011;63583;49.976;20.182;2023-01-06T07:45:31;4.75;;;1.73;;
75021;SDS011;63583;49.976;20.182;2023-01-06T07:47:57;2.97;;;1.67;;
75021;SDS011;63583;49.976;20.182;2023-01-06T07:50:22;3.42;;;1.55;;
75021;SDS011;63583;49.976;20.182;2023-01-06T07:52:48;3.42;;;1.60;;
75021;SDS011;63583;49.976;20.182;2023-01-06T07:55:14;3.05;;;1.60;;
75021;SDS011;63583;49.976;20.182;2023-01-06T07:57:41;2.25;;;1.38;;
75021;SDS011;63583;49.976;20.182;2023-01-06T08:00:07;2.85;;;2.03;;
75021;SDS011;63583;49.976;20.182;2023-01-06T08:02:34;4.38;;;2.25;;
75021;SDS011;63583;49.976;20.182;2023-01-06T08:04:59;4.88;;;2.38;;
75021;SDS011;63583;49.976;20.182;2023-01-06T08:07:26;2.00;;;1.42;;
75021;SDS011;63583;49.976;20.182;2023-01-06T08:09:51;2.97;;;1.70;;
75021;SDS011;63583;49.976;20.182;2023-01-06T08:12:17;4.10;;;2.28;;
75021;SDS011;63583;49.976;20.182;2023-01-06T08:14:43;3.63;;;2.08;;
75021;SDS011;63583;49.976;20.182;2023-01-06T08:17:09;2.70;;;1.90;;
75021;SDS011;63583;49.976;20.182;2023-01-06T08:19:35;3.28;;;1.73;;
75021;SDS011;63583;49.976;20.182;2023-01-06T08:22:01;2.50;;;1.60;;
75021;SDS011;63583;49.976;20.182;2023-01-06T08:24:27;3.60;;;1.67;;
75021;SDS011;63583;49.976;20.182;2023-01-06T08:26:55;4.55;;;2.33;;
75021;SDS011;63583;49.976;20.182;2023-01-06T08:29:22;2.67;;;1.55;;
75021;SDS011;63583;49.976;20.182;2023-01-06T08:31:49;2.47;;;1.65;;
75021;SDS011;63583;49.976;20.182;2023-01-06T08:34:15;4.03;;;1.55;;
75021;SDS011;63583;49.976;20.182;2023-01-06T08:36:42;3.10;;;1.42;;
75021;SDS011;63583;49.976;20.182;2023-01-06T08:39:09;2.80;;;1.55;;
75021;SDS011;63583;49.976;20.182;2023-01-06T08:41:36;2.00;;;1.35;;
75021;SDS011;63583;49.976;20.182;2023-01-06T08:44:03;2.95;;;1.95;;
75021;SDS011;63583;49.976;20.182;2023-01-06T08:46:29;2.53;;;1.40;;
75021;SDS011;63583;49.976;20.182;2023-01-06T08:48:55;3.10;;;1.70;;
75021;SDS011;63583;49.976;20.182;2023-01-06T08:51:22;3.70;;;1.75;;
75021;SDS011;63583;49.976;20.182;2023-01-06T08:53:52;2.28;;;1.60;;
75021;SDS011;63583;49.976;20.182;2023-01-06T08:56:26;3.22;;;1.60;;
75021;SDS011;63583;49.976;20.182;2023-01-06T08:58:54;5.40;;;2.58;;
75021;SDS011;63583;49.976;20.182;2023-01-06T09:01:26;3.13;;;1.40;;
75021;SDS011;63583;49.976;20.182;2023-01-06T09:03:54;2.28;;;1.17;;
75021;SDS011;63583;49.976;20.182;2023-01-06T09:06:22;3.42;;;2.35;;
75021;SDS011;63583;49.976;20.182;2023-01-06T09:08:48;3.00;;;1.90;;
75021;SDS011;63583;49.976;20.182;2023-01-06T09:11:14;3.17;;;1.80;;
75021;SDS011;63583;49.976;20.182;2023-01-06T09:13:41;2.97;;;1.50;;
75021;SDS011;63583;49.976;20.182;2023-01-06T09:16:08;3.22;;;1.90;;
75021;SDS011;63583;49.976;20.182;2023-01-06T09:18:35;3.03;;;1.60;;
75021;SDS011;63583;49.976;20.182;2023-01-06T09:21:02;2.00;;;1.05;;
75021;SDS011;63583;49.976;20.182;2023-01-06T09:23:29;2.72;;;1.20;;
75021;SDS011;63583;49.976;20.182;2023-01-06T09:25:55;3.35;;;1.48;;
75021;SDS011;63583;49.976;20.182;2023-01-06T09:28:22;1.90;;;1.20;;
75021;SDS011;63583;49.976;20.182;2023-01-06T09:30:49;4.72;;;2.13;;
75021;SDS011;63583;49.976;20.182;2023-01-06T09:33:15;2.30;;;1.27;;
75021;SDS011;63583;49.976;20.182;2023-01-06T09:35:42;3.47;;;1.15;;
75021;SDS011;63583;49.976;20.182;2023-01-06T09:38:09;2.33;;;1.38;;
75021;SDS011;63583;49.976;20.182;2023-01-06T09:46:13;2.05;;;1.40;;
75021;SDS011;63583;49.976;20.182;2023-01-06T09:48:44;1.88;;;1.20;;
75021;SDS011;63583;49.976;20.182;2023-01-06T09:51:19;2.63;;;1.33;;
75021;SDS011;63583;49.976;20.182;2023-01-06T09:53:49;3.00;;;1.42;;
75021;SDS011;63583;49.976;20.182;2023-01-06T09:56:18;1.70;;;1.00;;
75021;SDS011;63583;49.976;20.182;2023-01-06T10:01:41;2.60;;;1.13;;
75021;SDS011;63583;49.976;20.182;2023-01-06T10:04:13;4.28;;;1.50;;
75021;SDS011;63583;49.976;20.182;2023-01-06T10:06:46;2.10;;;1.30;;
75021;SDS011;63583;49.976;20.182;2023-01-06T10:09:30;2.30;;;1.00;;
75021;SDS011;63583;49.976;20.182;2023-01-06T10:18:36;1.95;;;1.13;;
75021;SDS011;63583;49.976;20.182;2023-01-06T10:26:49;2.50;;;1.25;;
75021;SDS011;63583;49.976;20.182;2023-01-06T10:29:19;1.80;;;0.93;;
75021;SDS011;63583;49.976;20.182;2023-01-06T10:31:46;2.85;;;1.15;;
75021;SDS011;63583;49.976;20.182;2023-01-06T10:34:19;2.10;;;1.08;;
75021;SDS011;63583;49.976;20.182;2023-01-06T10:37:00;2.40;;;1.10;;
75021;SDS011;63583;49.976;20.182;2023-01-06T10:39:34;2.00;;;0.95;;
75021;SDS011;63583;49.976;20.182;2023-01-06T10:48:44;3.05;;;1.67;;
75021;SDS011;63583;49.976;20.182;2023-01-06T10:51:28;2.72;;;1.27;;
75021;SDS011;63583;49.976;20.182;2023-01-06T10:54:08;3.40;;;1.40;;
75021;SDS011;63583;49.976;20.182;2023-01-06T10:56:44;2.88;;;1.42;;
75021;SDS011;63583;49.976;20.182;2023-01-06T10:59:15;2.67;;;1.40;;
75021;SDS011;63583;49.976;20.182;2023-01-06T11:01:54;2.40;;;1.50;;
75021;SDS011;63583;49.976;20.182;2023-01-06T11:04:21;2.72;;;1.65;;
75021;SDS011;63583;49.976;20.182;2023-01-06T11:09:24;2.28;;;1.17;;
75021;SDS011;63583;49.976;20.182;2023-01-06T11:11:51;2.55;;;1.13;;
75021;SDS011;63583;49.976;20.182;2023-01-06T11:14:19;1.90;;;1.42;;
75021;SDS011;63583;49.976;20.182;2023-01-06T11:17:00;1.77;;;1.17;;
75021;SDS011;63583;49.976;20.182;2023-01-06T11:19:41;1.58;;;0.80;;
75021;SDS011;63583;49.976;20.182;2023-01-06T11:25:02;2.80;;;0.77;;
75021;SDS011;63583;49.976;20.182;2023-01-06T11:27:29;1.88;;;1.25;;
75021;SDS011;63583;49.976;20.182;2023-01-06T11:29:55;2.03;;;0.98;;
75021;SDS011;63583;49.976;20.182;2023-01-06T11:32:25;2.28;;;1.30;;
75021;SDS011;63583;49.976;20.182;2023-01-06T11:34:57;3.95;;;1.42;;
75021;SDS011;63583;49.976;20.182;2023-01-06T11:37:39;2.65;;;1.42;;
75021;SDS011;63583;49.976;20.182;2023-01-06T11:43:04;5.13;;;1.67;;
75021;SDS011;63583;49.976;20.182;2023-01-06T11:46:16;2.58;;;1.50;;
75021;SDS011;63583;49.976;20.182;2023-01-06T11:48:33;2.78;;;1.40;;
75021;SDS011;63583;49.976;20.182;2023-01-06T11:51:02;2.88;;;1.33;;
75021;SDS011;63583;49.976;20.182;2023-01-06T11:53:29;2.40;;;1.65;;
75021;SDS011;63583;49.976;20.182;2023-01-06T11:55:56;3.08;;;1.52;;
75021;SDS011;63583;49.976;20.182;2023-01-06T11:58:39;2.10;;;1.23;;
75021;SDS011;63583;49.976;20.182;2023-01-06T12:01:14;2.50;;;1.42;;
75021;SDS011;63583;49.976;20.182;2023-01-06T12:06:58;4.00;;;1.67;;
75021;SDS011;63583;49.976;20.182;2023-01-06T12:09:37;2.22;;;1.38;;
75021;SDS011;63583;49.976;20.182;2023-01-06T12:12:05;2.65;;;1.40;;
75021;SDS011;63583;49.976;20.182;2023-01-06T12:14:35;2.67;;;1.52;;
75021;SDS011;63583;49.976;20.182;2023-01-06T12:19:41;5.82;;;3.22;;
75021;SDS011;63583;49.976;20.182;2023-01-06T12:24:56;5.32;;;2.60;;
75021;SDS011;63583;49.976;20.182;2023-01-06T12:27:29;6.97;;;3.60;;
75021;SDS011;63583;49.976;20.182;2023-01-06T12:30:04;4.85;;;3.00;;
75021;SDS011;63583;49.976;20.182;2023-01-06T12:32:39;4.57;;;3.22;;
75021;SDS011;63583;49.976;20.182;2023-01-06T12:35:10;5.97;;;2.75;;
75021;SDS011;63583;49.976;20.182;2023-01-06T12:37:41;4.15;;;1.80;;
75021;SDS011;63583;49.976;20.182;2023-01-06T12:43:38;3.40;;;2.63;;
75021;SDS011;63583;49.976;20.182;2023-01-06T12:46:18;3.20;;;1.83;;
75021;SDS011;63583;49.976;20.182;2023-01-06T12:51:18;5.47;;;2.30;;
75021;SDS011;63583;49.976;20.182;2023-01-06T12:53:55;5.97;;;1.88;;
75021;SDS011;63583;49.976;20.182;2023-01-06T13:02:32;4.90;;;2.50;;
75021;SDS011;63583;49.976;20.182;2023-01-06T13:10:57;5.95;;;2.10;;
75021;SDS011;63583;49.976;20.182;2023-01-06T13:13:48;4.57;;;1.65;;
75021;SDS011;63583;49.976;20.182;2023-01-06T13:16:46;3.63;;;2.08;;
75021;SDS011;63583;49.976;20.182;2023-01-06T13:22:02;6.68;;;1.83;;
75021;SDS011;63583;49.976;20.182;2023-01-06T13:27:28;4.28;;;2.00;;
75021;SDS011;63583;49.976;20.182;2023-01-06T13:31:05;4.85;;;1.92;;
75021;SDS011;63583;49.976;20.182;2023-01-06T13:33:30;4.00;;;1.65;;
75021;SDS011;63583;49.976;20.182;2023-01-06T13:39:14;8.02;;;2.42;;
75021;SDS011;63583;49.976;20.182;2023-01-06T13:41:47;3.88;;;2.15;;
75021;SDS011;63583;49.976;20.182;2023-01-06T13:44:20;4.88;;;2.90;;
75021;SDS011;63583;49.976;20.182;2023-01-06T13:46:50;7.82;;;2.13;;
75021;SDS011;63583;49.976;20.182;2023-01-06T13:49:23;4.70;;;2.25;;
75021;SDS011;63583;49.976;20.182;2023-01-06T13:51:49;4.60;;;2.13;;
75021;SDS011;63583;49.976;20.182;2023-01-06T14:07:56;3.83;;;1.52;;
75021;SDS011;63583;49.976;20.182;2023-01-06T14:16:05;9.73;;;4.47;;
75021;SDS011;63583;49.976;20.182;2023-01-06T14:18:37;8.30;;;4.90;;
75021;SDS011;63583;49.976;20.182;2023-01-06T14:23:35;8.00;;;3.70;;
75021;SDS011;63583;49.976;20.182;2023-01-06T14:26:01;7.18;;;3.75;;
75021;SDS011;63583;49.976;20.182;2023-01-06T14:28:29;6.45;;;3.38;;
75021;SDS011;63583;49.976;20.182;2023-01-06T14:34:03;9.65;;;5.13;;
75021;SDS011;63583;49.976;20.182;2023-01-06T14:36:30;11.95;;;7.65;;
75021;SDS011;63583;49.976;20.182;2023-01-06T14:38:59;14.68;;;6.63;;
75021;SDS011;63583;49.976;20.182;2023-01-06T14:41:38;10.80;;;6.28;;
75021;SDS011;63583;49.976;20.182;2023-01-06T14:44:20;13.20;;;7.70;;
75021;SDS011;63583;49.976;20.182;2023-01-06T14:47:02;11.68;;;5.63;;
75021;SDS011;63583;49.976;20.182;2023-01-06T14:49:37;11.43;;;5.18;;
75021;SDS011;63583;49.976;20.182;2023-01-06T14:52:13;7.93;;;4.55;;
75021;SDS011;63583;49.976;20.182;2023-01-06T14:54:41;10.10;;;4.78;;
75021;SDS011;63583;49.976;20.182;2023-01-06T14:57:23;11.70;;;4.20;;
75021;SDS011;63583;49.976;20.182;2023-01-06T15:00:04;12.48;;;5.05;;
75021;SDS011;63583;49.976;20.182;2023-01-06T15:03:03;12.73;;;6.20;;
75021;SDS011;63583;49.976;20.182;2023-01-06T15:05:42;7.90;;;4.38;;
75021;SDS011;63583;49.976;20.182;2023-01-06T15:10:39;9.82;;;6.63;;
75021;SDS011;63583;49.976;20.182;2023-01-06T15:16:01;7.88;;;4.00;;
75021;SDS011;63583;49.976;20.182;2023-01-06T15:18:27;8.65;;;4.43;;
75021;SDS011;63583;49.976;20.182;2023-01-06T15:20:53;9.02;;;4.38;;
75021;SDS011;63583;49.976;20.182;2023-01-06T15:23:33;9.75;;;3.90;;
75021;SDS011;63583;49.976;20.182;2023-01-06T15:25:59;5.30;;;3.28;;
75021;SDS011;63583;49.976;20.182;2023-01-06T15:28:26;9.82;;;3.95;;
75021;SDS011;63583;49.976;20.182;2023-01-06T15:30:57;7.13;;;3.28;;
75021;SDS011;63583;49.976;20.182;2023-01-06T15:33:24;10.52;;;4.78;;
75021;SDS011;63583;49.976;20.182;2023-01-06T15:35:57;14.30;;;5.05;;
75021;SDS011;63583;49.976;20.182;2023-01-06T15:38:24;9.50;;;4.75;;
75021;SDS011;63583;49.976;20.182;2023-01-06T15:40:53;11.82;;;5.22;;
75021;SDS011;63583;49.976;20.182;2023-01-06T15:43:19;13.05;;;5.15;;
75021;SDS011;63583;49.976;20.182;2023-01-06T15:48:25;9.45;;;5.07;;
75021;SDS011;63583;49.976;20.182;2023-01-06T15:50:54;8.90;;;4.30;;
75021;SDS011;63583;49.976;20.182;2023-01-06T15:53:21;11.32;;;5.25;;
75021;SDS011;63583;49.976;20.182;2023-01-06T15:55:52;6.80;;;4.70;;
75021;SDS011;63583;49.976;20.182;2023-01-06T15:58:27;8.38;;;4.25;;
75021;SDS011;63583;49.976;20.182;2023-01-06T16:01:11;12.32;;;4.00;;
75021;SDS011;63583;49.976;20.182;2023-01-06T16:03:43;8.10;;;4.20;;
75021;SDS011;63583;49.976;20.182;2023-01-06T16:06:13;12.38;;;5.38;;
75021;SDS011;63583;49.976;20.182;2023-01-06T16:08:48;9.18;;;4.80;;
75021;SDS011;63583;49.976;20.182;2023-01-06T16:18:44;27.25;;;15.45;;
75021;SDS011;63583;49.976;20.182;2023-01-06T16:23:53;15.10;;;7.53;;
75021;SDS011;63583;49.976;20.182;2023-01-06T16:26:28;11.77;;;7.47;;
75021;SDS011;63583;49.976;20.182;2023-01-06T16:28:57;11.93;;;6.85;;
75021;SDS011;63583;49.976;20.182;2023-01-06T16:31:34;16.75;;;8.10;;
75021;SDS011;63583;49.976;20.182;2023-01-06T16:36:49;40.70;;;17.20;;
75021;SDS011;63583;49.976;20.182;2023-01-06T16:39:18;52.60;;;19.88;;
75021;SDS011;63583;49.976;20.182;2023-01-06T16:42:05;41.10;;;14.93;;
75021;SDS011;63583;49.976;20.182;2023-01-06T16:44:58;27.13;;;11.23;;
75021;SDS011;63583;49.976;20.182;2023-01-06T16:47:26;27.00;;;11.43;;
75021;SDS011;63583;49.976;20.182;2023-01-06T16:49:52;24.88;;;11.10;;
75021;SDS011;63583;49.976;20.182;2023-01-06T16:52:18;32.17;;;11.48;;
75021;SDS011;63583;49.976;20.182;2023-01-06T16:54:44;26.50;;;11.95;;
75021;SDS011;63583;49.976;20.182;2023-01-06T16:57:18;35.55;;;14.05;;
75021;SDS011;63583;49.976;20.182;2023-01-06T16:59:44;25.73;;;11.18;;
75021;SDS011;63583;49.976;20.182;2023-01-06T17:02:12;22.35;;;8.98;;
75021;SDS011;63583;49.976;20.182;2023-01-06T17:04:40;12.75;;;8.32;;
75021;SDS011;63583;49.976;20.182;2023-01-06T17:07:08;17.63;;;7.60;;
75021;SDS011;63583;49.976;20.182;2023-01-06T17:09:37;13.18;;;6.20;;
75021;SDS011;63583;49.976;20.182;2023-01-06T17:12:07;14.27;;;6.85;;
75021;SDS011;63583;49.976;20.182;2023-01-06T17:14:36;14.18;;;6.68;;
75021;SDS011;63583;49.976;20.182;2023-01-06T17:17:36;10.45;;;6.43;;
75021;SDS011;63583;49.976;20.182;2023-01-06T17:19:54;12.77;;;5.45;;
75021;SDS011;63583;49.976;20.182;2023-01-06T17:22:22;13.40;;;6.63;;
75021;SDS011;63583;49.976;20.182;2023-01-06T17:24:52;14.00;;;6.47;;
75021;SDS011;63583;49.976;20.182;2023-01-06T17:29:47;14.77;;;5.88;;
75021;SDS011;63583;49.976;20.182;2023-01-06T17:32:18;15.07;;;5.30;;
75021;SDS011;63583;49.976;20.182;2023-01-06T17:34:46;14.10;;;6.25;;
75021;SDS011;63583;49.976;20.182;2023-01-06T17:37:23;15.50;;;5.90;;
75021;SDS011;63583;49.976;20.182;2023-01-06T17:39:50;18.75;;;8.98;;